CST,Max TemperatureF,Mean TemperatureF,Min TemperatureF,Max Dew PointF,MeanDew PointF,Min DewpointF,Max Humidity, Mean Humidity, Min Humidity, Max Sea Level PressureIn, Mean Sea Level PressureIn, Min Sea Level PressureIn, Max VisibilityMiles, Mean VisibilityMiles, Min VisibilityMiles, Max Wind SpeedMPH, Mean Wind SpeedMPH, Max Gust SpeedMPH,PrecipitationIn, CloudCover, Events, WindDirDegrees
2012-1-1,35,32,28,32,20,14,87,63,41,30.41,30.19,29.84,10,10,10,39,25,47,0.00,2,,303
2012-1-2,26,18,10,16,8,1,79,59,34,30.55,30.50,30.44,10,10,10,28,18,32,0.00,0,,312
2012-1-3,39,22,6,25,12,1,79,61,38,30.47,30.15,29.94,10,10,10,28,8,33,0.00,0,,188
2012-1-4,48,39,30,28,27,25,86,65,40,30.21,30.10,29.95,10,10,10,21,15,26,0.00,0,,273
2012-1-5,64,48,32,28,25,18,75,52,16,30.03,29.89,29.72,10,10,10,16,9,,0.00,0,,243
2012-1-6,53,42,32,30,27,23,75,59,30,29.97,29.82,29.67,10,10,10,16,8,21,0.00,2,,306
2012-1-7,42,32,21,27,22,16,86,70,53,30.23,30.13,30.01,10,10,3,12,8,,0.00,0,,287
2012-1-8,46,32,19,28,21,16,86,67,34,30.32,30.27,30.25,10,10,10,12,3,,0.00,1,,237
2012-1-9,51,38,26,28,24,19,80,61,28,30.22,30.10,30.02,10,10,10,18,13,21,0.00,0,,231
2012-1-10,60,42,24,30,25,19,80,58,27,30.02,29.92,29.78,10,10,10,15,6,,0.00,0,,233
2012-1-11,37,28,19,32,23,10,81,72,64,29.91,29.73,29.59,10,9,1,34,14,46,0.00,5,Snow,309
2012-1-12,17,12,8,9,3,0,73,67,58,29.90,29.88,29.84,10,10,2,30,25,37,0.00,8,Snow,312
2012-1-13,23,13,3,3,-1,-6,79,60,28,30.05,30.00,29.95,10,10,7,15,11,20,0.00,1,,289
2012-1-14,39,24,8,30,19,5,86,80,60,30.10,30.03,29.92,10,8,2,16,4,22,0.00,6,Snow,249
2012-1-15,53,36,19,27,21,14,86,59,28,30.12,29.88,29.70,10,10,10,30,10,38,0.00,0,,170
2012-1-16,42,33,24,27,22,16,80,66,46,29.87,29.75,29.71,10,10,10,21,14,24,0.00,1,,346
2012-1-17,21,10,0,12,5,-6,85,74,62,30.33,30.18,29.86,10,8,1,29,18,38,0.00,4,Snow,311
2012-1-18,32,16,0,18,9,-6,85,69,51,30.28,29.99,29.77,10,10,10,32,11,40,0.00,1,,194
2012-1-19,10,5,0,0,-10,-15,67,53,34,30.17,30.10,29.96,10,10,10,22,14,30,0.00,5,Snow,13
2012-1-20,10,8,5,3,0,-8,79,73,52,30.12,30.03,29.93,10,8,1,20,10,,0.00,8,Snow,81
2012-1-21,24,10,-5,19,5,-11,86,80,73,30.23,30.07,29.81,10,9,2,25,7,32,0.00,6,Snow,140
2012-1-22,37,30,24,34,28,19,93,85,74,29.71,29.51,29.42,10,4,0,24,15,30,0.01,8,Fog-Rain,139
2012-1-23,32,28,24,28,21,19,93,81,74,29.99,29.75,29.46,10,7,2,24,19,32,0.00,8,Snow,289
2012-1-24,32,26,21,27,20,18,86,80,74,30.26,30.18,30.03,10,10,10,16,7,16,0.00,6,,78
2012-1-25,44,34,24,36,27,21,86,81,66,30.24,30.09,29.93,10,7,4,13,6,,0.00,3,,159
2012-1-26,44,36,28,36,30,25,86,75,66,29.89,29.84,29.79,10,9,5,25,12,34,0.00,3,,272
2012-1-27,39,32,24,32,26,19,87,77,65,30.06,29.92,29.86,10,10,1,30,9,36,0.01,5,Rain-Snow,245
2012-1-28,42,30,19,21,17,10,86,62,27,30.16,30.11,30.07,10,10,10,21,14,30,0.00,0,,257
2012-1-29,37,28,19,19,15,7,80,56,28,30.22,30.13,30.03,10,10,10,17,10,24,0.00,2,,259
2012-1-30,64,50,37,23,19,10,49,32,12,29.90,29.75,29.70,10,10,10,23,15,26,0.00,0,,213
2012-1-31,57,45,33,36,34,28,87,63,41,29.99,29.80,29.70,10,10,10,22,16,28,0.00,0,,262